createdAt,value
2018-09-29T00:31:06.635Z,59.80
2018-09-29T00:33:37.915Z,59.90
2018-09-29T00:36:08.233Z,59.60
2018-09-29T00:38:38.516Z,59.60
2018-09-29T00:41:09.135Z,59.50
2018-09-29T00:43:39.377Z,60.00
2018-09-29T00:46:10.034Z,60.50
2018-09-29T00:48:40.315Z,60.30
2018-09-29T00:51:10.562Z,60.10
2018-09-29T00:53:40.821Z,60.40
2018-09-29T00:56:11.067Z,61.00
2018-09-29T00:58:41.352Z,60.90
2018-09-29T01:01:11.602Z,60.70
2018-09-29T01:03:41.865Z,60.70
2018-09-29T01:06:12.107Z,60.60
2018-09-29T01:08:42.382Z,60.80
2018-09-29T01:11:12.590Z,60.50
2018-09-29T01:13:42.831Z,60.70
2018-09-29T01:16:13.046Z,60.90
2018-09-29T01:18:43.283Z,60.80
2018-09-29T01:21:13.509Z,60.80
2018-09-29T01:23:43.767Z,59.90
2018-09-29T01:26:13.966Z,58.60
2018-09-29T01:28:44.210Z,58.20
2018-09-29T01:31:14.415Z,57.80
2018-09-29T01:33:44.725Z,58.20
2018-09-29T01:36:15.170Z,58.60
2018-09-29T01:38:45.405Z,57.60
2018-09-29T01:41:15.642Z,57.30
2018-09-29T01:43:46.726Z,57.10
2018-09-29T01:46:17.053Z,56.80
2018-09-29T01:48:47.309Z,56.30
2018-09-29T01:51:17.522Z,55.20
2018-09-29T01:53:47.772Z,55.20
2018-09-29T01:56:18.022Z,55.60
2018-09-29T01:58:48.302Z,55.70
2018-09-29T02:01:18.522Z,56.80
2018-09-29T02:03:48.762Z,56.40
2018-09-29T02:06:19.011Z,56.20
2018-09-29T02:08:49.259Z,56.00
2018-09-29T02:11:19.490Z,55.90
2018-09-29T02:13:49.723Z,56.20
2018-09-29T02:16:19.966Z,56.10
2018-09-29T02:18:50.171Z,56.80
2018-09-29T02:21:20.413Z,57.10
2018-09-29T02:23:50.654Z,57.40
2018-09-29T02:26:20.878Z,56.90
2018-09-29T02:28:51.137Z,57.20
2018-09-29T02:31:21.362Z,57.60
2018-09-29T02:33:51.623Z,57.70
2018-09-29T02:36:21.841Z,57.70
2018-09-29T02:38:52.082Z,57.80
2018-09-29T02:41:22.310Z,57.90
2018-09-29T02:43:52.555Z,57.90
2018-09-29T02:46:22.815Z,57.50
2018-09-29T02:48:53.026Z,57.60
2018-09-29T02:51:23.268Z,57.80
2018-09-29T02:53:53.480Z,58.10
2018-09-29T02:56:23.735Z,58.30
2018-09-29T02:58:53.983Z,58.50
2018-09-29T03:01:24.183Z,58.60
2018-09-29T03:03:54.490Z,58.60
2018-09-29T03:06:24.695Z,58.60
2018-09-29T03:08:54.922Z,58.60
2018-09-29T03:11:25.141Z,58.30
2018-09-29T03:13:55.430Z,58.30
2018-09-29T03:16:25.630Z,58.40
2018-09-29T03:18:55.908Z,58.40
2018-09-29T03:21:26.146Z,58.60
2018-09-29T03:23:56.578Z,58.50
2018-09-29T03:26:27.098Z,58.20
2018-09-29T03:28:57.334Z,57.90
2018-09-29T03:31:27.576Z,58.10
2018-09-29T03:33:57.849Z,58.20
2018-09-29T03:36:28.051Z,58.30
2018-09-29T03:38:58.301Z,58.30
2018-09-29T03:41:28.506Z,58.20
2018-09-29T03:43:58.777Z,58.20
2018-09-29T03:46:29.053Z,58.00
2018-09-29T03:48:59.301Z,58.10
2018-09-29T03:51:29.509Z,58.70
2018-09-29T03:53:59.802Z,58.10
2018-09-29T03:56:30.031Z,58.30
2018-09-29T03:59:00.287Z,58.50
2018-09-29T04:01:30.491Z,58.80
2018-09-29T04:04:00.724Z,58.90
2018-09-29T04:06:30.938Z,58.90
2018-09-29T04:09:01.439Z,59.60
2018-09-29T04:11:31.639Z,58.80
2018-09-29T04:14:01.930Z,58.40
2018-09-29T04:16:32.075Z,58.50
2018-09-29T04:19:02.307Z,58.40
2018-09-29T04:21:37.894Z,58.50
2018-09-29T04:24:08.146Z,58.60
2018-09-29T04:26:38.362Z,59.00
2018-09-29T04:29:08.600Z,59.30
2018-09-29T04:31:39.198Z,59.40
2018-09-29T04:34:09.619Z,59.30
2018-09-29T04:36:39.894Z,59.90
2018-09-29T04:39:12.352Z,58.90
2018-09-29T04:41:42.656Z,58.70
2018-09-29T04:44:13.104Z,58.60
2018-09-29T04:46:43.330Z,58.40
2018-09-29T04:49:13.671Z,58.70
2018-09-29T04:51:43.799Z,58.60
2018-09-29T04:54:14.027Z,58.60
2018-09-29T04:56:44.246Z,58.60
2018-09-29T04:59:14.591Z,58.70
2018-09-29T05:01:44.899Z,58.80
2018-09-29T05:04:15.121Z,58.50
2018-09-29T05:06:45.322Z,58.40
2018-09-29T05:09:15.603Z,58.50
2018-09-29T05:11:45.843Z,58.50
2018-09-29T05:14:16.122Z,58.60
2018-09-29T05:16:46.318Z,58.40
2018-09-29T05:19:16.547Z,58.40
2018-09-29T05:21:46.754Z,58.70
2018-09-29T05:24:16.978Z,58.60
2018-09-29T05:26:47.289Z,58.60
2018-09-29T05:29:17.530Z,58.70
2018-09-29T05:31:47.731Z,58.50
2018-09-29T05:34:17.974Z,58.40
2018-09-29T05:36:48.164Z,58.10
2018-09-29T05:39:18.640Z,58.00
2018-09-29T05:41:48.857Z,57.80
2018-09-29T05:44:19.163Z,57.60
2018-09-29T05:46:49.797Z,57.60
2018-09-29T05:49:20.202Z,57.80
2018-09-29T05:51:50.431Z,57.90
2018-09-29T05:54:21.443Z,57.80
2018-09-29T05:56:51.654Z,57.50
2018-09-29T05:59:21.978Z,57.80
2018-09-29T06:01:52.245Z,57.80
2018-09-29T06:04:22.579Z,58.30
2018-09-29T06:06:52.806Z,58.60
2018-09-29T06:09:23.106Z,58.80
2018-09-29T06:11:53.448Z,58.80
2018-09-29T06:14:23.689Z,59.00
2018-09-29T06:16:53.943Z,58.90
2018-09-29T06:19:24.195Z,58.60
2018-09-29T06:21:54.399Z,58.30
2018-09-29T06:24:24.659Z,58.00
2018-09-29T06:26:54.966Z,58.10
2018-09-29T06:29:25.230Z,57.70
2018-09-29T06:31:55.457Z,57.70
2018-09-29T06:34:25.934Z,57.10
2018-09-29T06:36:56.235Z,56.50
2018-09-29T06:39:26.466Z,56.10
2018-09-29T06:41:56.722Z,55.50
2018-09-29T06:44:27.109Z,54.20
2018-09-29T06:46:57.680Z,52.90
2018-09-29T06:49:28.269Z,52.90
2018-09-29T06:51:58.518Z,51.70
2018-09-29T06:54:28.793Z,50.60
2018-09-29T06:56:59.051Z,48.80
2018-09-29T06:59:29.363Z,47.60
2018-09-29T07:01:59.611Z,46.70
2018-09-29T07:04:30.191Z,45.50
2018-09-29T07:07:00.426Z,44.10
2018-09-29T07:09:30.710Z,42.60
2018-09-29T07:12:00.982Z,41.20
2018-09-29T07:14:32.646Z,42.00
2018-09-29T07:17:05.828Z,42.00
2018-09-29T07:19:36.866Z,40.50
2018-09-29T07:22:07.191Z,40.00
2018-09-29T07:24:38.685Z,38.20
2018-09-29T07:27:09.905Z,39.10
2018-09-29T07:29:40.533Z,38.70
2018-09-29T07:32:11.183Z,37.40
2018-09-29T07:34:41.447Z,36.70
2018-09-29T07:37:12.339Z,36.80
2018-09-29T07:39:42.711Z,38.30
2018-09-29T07:42:13.143Z,37.50
2018-09-29T07:44:43.933Z,34.60
2018-09-29T07:47:14.988Z,35.90
2018-09-29T07:49:46.361Z,36.30
2018-09-29T07:52:16.703Z,35.60
2018-09-29T07:54:47.065Z,36.20
2018-09-29T07:57:18.539Z,34.30
2018-09-29T07:59:49.849Z,34.00
2018-09-29T08:02:20.826Z,34.50
2018-09-29T08:04:52.131Z,33.80
2018-09-29T08:07:23.578Z,35.10
2018-09-29T08:09:53.835Z,32.70
2018-09-29T08:12:24.171Z,32.40
2018-09-29T08:14:54.409Z,33.20
2018-09-29T08:17:24.706Z,33.70
2018-09-29T08:19:54.992Z,32.20
2018-09-29T08:22:25.306Z,32.10
2018-09-29T08:24:55.581Z,31.10
2018-09-29T08:27:25.861Z,30.40
2018-09-29T08:29:56.126Z,30.50
2018-09-29T08:32:26.420Z,29.90
2018-09-29T08:34:56.767Z,29.30
2018-09-29T08:37:27.039Z,29.70
2018-09-29T08:39:57.390Z,30.00
2018-09-29T08:42:27.751Z,29.10
2018-09-29T08:44:58.322Z,30.20
2018-09-29T08:47:28.612Z,29.40
2018-09-29T08:49:58.857Z,28.40
2018-09-29T08:52:29.211Z,29.80
2018-09-29T08:54:59.472Z,30.10
2018-09-29T08:57:29.739Z,31.00
2018-09-29T09:00:00.017Z,30.80
2018-09-29T09:02:30.314Z,31.30
2018-09-29T09:05:00.554Z,32.30
2018-09-29T09:07:30.831Z,32.10
2018-09-29T09:10:01.086Z,32.10
2018-09-29T09:12:31.394Z,31.30
2018-09-29T09:15:01.690Z,30.20
2018-09-29T09:17:32.106Z,28.70
2018-09-29T09:20:02.322Z,28.80
2018-09-29T09:22:32.610Z,28.30
2018-09-29T09:25:02.889Z,28.90
2018-09-29T09:27:33.173Z,28.30
2018-09-29T09:30:03.644Z,28.20
2018-09-29T09:32:33.894Z,27.90
2018-09-29T09:35:04.222Z,27.00
2018-09-29T09:37:34.484Z,28.20
2018-09-29T09:40:04.757Z,27.90
2018-09-29T09:42:35.045Z,26.50
2018-09-29T09:45:05.819Z,27.10
2018-09-29T09:47:36.164Z,27.50
2018-09-29T09:50:06.434Z,25.70
2018-09-29T09:52:36.699Z,24.80
2018-09-29T09:55:06.965Z,24.70
2018-09-29T09:57:37.266Z,23.80
2018-09-29T10:00:07.590Z,23.90
2018-09-29T10:02:47.022Z,22.30
2018-09-29T10:05:17.241Z,22.20
2018-09-29T10:07:47.543Z,21.20
2018-09-29T10:10:17.802Z,20.80
2018-09-29T10:12:48.188Z,19.60
2018-09-29T10:15:18.422Z,19.20
2018-09-29T10:17:48.690Z,19.20
2018-09-29T10:20:19.139Z,18.80
2018-09-29T10:22:49.407Z,19.80
2018-09-29T10:25:19.809Z,19.60
2018-09-29T10:27:50.156Z,19.70
2018-09-29T10:30:20.363Z,19.00
2018-09-29T10:32:50.682Z,19.40
2018-09-29T10:35:20.914Z,20.00
2018-09-29T10:37:51.186Z,21.60
2018-09-29T10:40:21.430Z,20.00
2018-09-29T10:42:51.691Z,19.00
2018-09-29T10:45:22.054Z,18.40
2018-09-29T10:47:52.362Z,18.30
2018-09-29T10:50:22.614Z,18.40
2018-09-29T10:52:52.914Z,17.90
2018-09-29T10:55:23.202Z,17.60
2018-09-29T10:57:53.490Z,16.90
2018-09-29T11:00:23.763Z,18.00
2018-09-29T11:02:54.002Z,17.60
2018-09-29T11:05:24.342Z,17.50
2018-09-29T11:07:54.646Z,17.40
2018-09-29T11:10:24.874Z,17.20
2018-09-29T11:12:55.146Z,16.80
2018-09-29T11:15:25.366Z,17.70
2018-09-29T11:17:55.643Z,17.70
2018-09-29T11:20:25.867Z,17.30
2018-09-29T11:22:56.103Z,17.40
2018-09-29T11:25:26.744Z,17.40
2018-09-29T11:27:57.062Z,16.30
2018-09-29T11:30:27.241Z,16.10
2018-09-29T11:32:57.476Z,16.00
2018-09-29T11:35:27.710Z,15.90
2018-09-29T11:37:57.969Z,15.40
2018-09-29T11:40:28.300Z,15.20
2018-09-29T11:42:58.685Z,15.60
2018-09-29T11:45:29.029Z,14.80
2018-09-29T11:47:59.271Z,15.50
2018-09-29T11:50:39.991Z,15.80
2018-09-29T11:53:10.216Z,15.50
2018-09-29T11:55:40.590Z,15.50
2018-09-29T11:58:10.826Z,15.20
2018-09-29T12:00:43.982Z,14.90
2018-09-29T12:03:14.980Z,15.70
2018-09-29T12:05:45.863Z,15.00
2018-09-29T12:08:20.786Z,14.90
2018-09-29T12:10:51.001Z,15.40
2018-09-29T12:13:22.164Z,13.60
2018-09-29T12:15:52.379Z,14.40
2018-09-29T12:18:22.615Z,13.20
2018-09-29T12:20:52.839Z,13.00
2018-09-29T12:23:23.089Z,13.40
2018-09-29T12:25:53.302Z,13.30
2018-09-29T12:28:23.562Z,14.50
2018-09-29T12:30:53.779Z,14.80
2018-09-29T12:33:24.030Z,14.60
2018-09-29T12:35:54.282Z,14.80
2018-09-29T12:38:24.495Z,14.10
2018-09-29T12:40:55.120Z,13.80
2018-09-29T12:43:25.370Z,12.90
2018-09-29T12:45:55.718Z,12.70
2018-09-29T12:48:25.946Z,12.50
2018-09-29T12:50:56.215Z,11.20
2018-09-29T12:53:26.470Z,11.20
2018-09-29T12:55:56.814Z,11.60
2018-09-29T12:58:27.047Z,11.30
2018-09-29T13:00:57.299Z,11.20
2018-09-29T13:03:27.551Z,11.10
2018-09-29T13:05:57.790Z,10.70
2018-09-29T13:08:28.082Z,10.90
2018-09-29T13:10:58.395Z,10.10
2018-09-29T13:13:28.583Z,11.00
2018-09-29T13:15:58.840Z,11.20
2018-09-29T13:18:29.055Z,12.10
2018-09-29T13:20:59.294Z,11.00
2018-09-29T13:23:29.518Z,11.70
2018-09-29T13:25:59.763Z,10.30
2018-09-29T13:28:29.970Z,10.50
2018-09-29T13:31:00.242Z,11.50
2018-09-29T13:33:30.479Z,12.40
2018-09-29T13:36:00.733Z,12.30
2018-09-29T13:38:30.955Z,11.50
2018-09-29T13:41:01.590Z,11.10
2018-09-29T13:43:31.819Z,10.50
2018-09-29T13:46:02.273Z,10.80
2018-09-29T13:48:32.459Z,11.40
2018-09-29T13:51:02.751Z,11.10
2018-09-29T13:53:33.052Z,11.00
2018-09-29T13:56:04.562Z,10.90
2018-09-29T13:58:34.770Z,11.20
2018-09-29T14:01:05.023Z,11.10
2018-09-29T14:03:35.234Z,9.90
2018-09-29T14:06:05.502Z,10.30
2018-09-29T14:08:35.772Z,10.40
2018-09-29T14:11:06.002Z,10.20
2018-09-29T14:13:36.230Z,10.20
2018-09-29T14:16:06.488Z,10.00
2018-09-29T14:18:36.714Z,9.50
2018-09-29T14:21:07.070Z,9.90
2018-09-29T14:23:37.317Z,10.30
2018-09-29T14:26:07.766Z,11.60
2018-09-29T14:28:37.978Z,11.20
2018-09-29T14:31:08.317Z,11.30
2018-09-29T14:33:38.536Z,10.10
2018-09-29T14:36:08.815Z,11.10
2018-09-29T14:38:39.029Z,11.10
2018-09-29T14:41:09.322Z,10.60
2018-09-29T14:43:39.546Z,10.50
2018-09-29T14:46:09.918Z,9.80
2018-09-29T14:48:40.154Z,10.80
2018-09-29T14:51:10.431Z,9.90
2018-09-29T14:53:40.778Z,10.00
2018-09-29T14:56:11.048Z,10.10
2018-09-29T14:58:41.430Z,10.00
2018-09-29T15:01:11.682Z,10.20
2018-09-29T15:03:41.890Z,10.30
2018-09-29T15:06:12.170Z,10.90
2018-09-29T15:08:42.662Z,10.80
2018-09-29T15:11:12.953Z,10.50
2018-09-29T15:13:43.162Z,10.90
2018-09-29T15:16:13.447Z,11.60
2018-09-29T15:18:43.774Z,11.90
2018-09-29T15:21:14.054Z,11.60
2018-09-29T15:23:44.298Z,11.70
2018-09-29T15:26:14.624Z,11.60
2018-09-29T15:28:44.797Z,12.30
2018-09-29T15:31:15.056Z,12.60
2018-09-29T15:33:45.296Z,12.80
2018-09-29T15:36:15.528Z,13.50
2018-09-29T15:38:45.798Z,14.50
2018-09-29T15:41:16.010Z,16.30
2018-09-29T15:43:46.291Z,16.40
2018-09-29T15:46:16.600Z,17.10
2018-09-29T15:48:46.959Z,17.20
2018-09-29T15:51:17.107Z,17.60
2018-09-29T15:53:47.345Z,17.70
2018-09-29T15:56:17.559Z,17.50
2018-09-29T15:58:47.790Z,18.40
2018-09-29T16:01:18.014Z,18.40
2018-09-29T16:03:48.280Z,19.40
2018-09-29T16:06:18.516Z,19.50
2018-09-29T16:08:48.767Z,20.00
2018-09-29T16:11:18.994Z,20.70
2018-09-29T16:13:49.225Z,21.40
2018-09-29T16:16:19.488Z,22.40
2018-09-29T16:18:49.815Z,23.20
2018-09-29T16:21:20.029Z,23.50
2018-09-29T16:23:50.273Z,24.30
2018-09-29T16:26:20.566Z,24.70
2018-09-29T16:28:50.846Z,25.30
2018-09-29T16:31:21.087Z,25.80
2018-09-29T16:33:51.333Z,26.30
2018-09-29T16:36:21.546Z,26.70
2018-09-29T16:38:51.799Z,26.30
2018-09-29T16:41:22.027Z,26.10
2018-09-29T16:43:52.235Z,26.70
2018-09-29T16:46:22.530Z,27.10
2018-09-29T16:48:52.764Z,27.00
2018-09-29T16:51:23.022Z,27.60
2018-09-29T16:53:53.229Z,28.30
2018-09-29T16:56:23.458Z,28.40
2018-09-29T16:58:53.799Z,28.50
2018-09-29T17:01:24.082Z,28.80
2018-09-29T17:03:54.384Z,29.10
2018-09-29T17:06:24.579Z,29.50
2018-09-29T17:08:54.903Z,29.60
2018-09-29T17:11:25.183Z,30.00
2018-09-29T17:13:55.590Z,30.80
2018-09-29T17:16:34.305Z,31.60
2018-09-29T17:19:05.767Z,32.40
2018-09-29T17:21:36.148Z,32.70
2018-09-29T17:24:06.814Z,33.20
2018-09-29T17:26:37.485Z,34.10
2018-09-29T17:29:08.835Z,34.70
2018-09-29T17:31:39.387Z,35.20
2018-09-29T17:34:10.248Z,35.70
2018-09-29T17:36:41.264Z,36.00
2018-09-29T17:39:12.422Z,36.50
2018-09-29T17:41:42.678Z,37.00
2018-09-29T17:44:12.985Z,38.40
2018-09-29T17:46:44.043Z,38.20
2018-09-29T17:49:14.347Z,38.60
2018-09-29T17:51:44.583Z,39.20
2018-09-29T17:54:14.845Z,39.60
2018-09-29T17:56:45.123Z,39.50
2018-09-29T17:59:15.532Z,39.50
2018-09-29T18:01:45.783Z,39.60
2018-09-29T18:04:16.146Z,40.30
2018-09-29T18:06:46.394Z,41.50
2018-09-29T18:09:17.410Z,41.30
2018-09-29T18:11:48.101Z,41.40
2018-09-29T18:14:18.838Z,42.10
2018-09-29T18:16:49.201Z,42.00
2018-09-29T18:19:19.543Z,42.20
2018-09-29T18:21:49.851Z,42.10
2018-09-29T18:24:20.327Z,42.20
2018-09-29T18:26:50.653Z,42.70
2018-09-29T18:29:20.968Z,43.80
2018-09-29T18:31:51.825Z,44.50
2018-09-29T18:34:22.177Z,44.80
2018-09-29T18:36:53.413Z,45.00
2018-09-29T18:39:23.718Z,45.60
2018-09-29T18:41:54.012Z,45.90
2018-09-29T18:44:24.311Z,46.30
2018-09-29T18:46:54.663Z,46.20
2018-09-29T18:49:25.045Z,46.40
2018-09-29T18:51:55.361Z,46.50
2018-09-29T18:54:25.711Z,46.20
2018-09-29T18:56:56.130Z,46.30
2018-09-29T18:59:26.496Z,45.90
2018-09-29T19:01:56.766Z,45.90
2018-09-29T19:04:27.127Z,46.20
2018-09-29T19:06:57.377Z,46.20
2018-09-29T19:09:27.718Z,46.70
2018-09-29T19:11:58.035Z,47.30
2018-09-29T19:14:28.416Z,47.60
2018-09-29T19:16:58.796Z,48.10
2018-09-29T19:19:29.247Z,48.30
2018-09-29T19:21:59.554Z,47.70
2018-09-29T19:24:29.967Z,47.10
2018-09-29T19:27:00.218Z,47.20
2018-09-29T19:29:34.305Z,47.10
2018-09-29T19:32:04.734Z,47.10
2018-09-29T19:34:35.050Z,47.20
2018-09-29T19:37:05.310Z,47.00
2018-09-29T19:39:35.616Z,47.10
2018-09-29T19:42:05.895Z,47.20
2018-09-29T19:44:36.591Z,47.90
2018-09-29T19:47:06.903Z,47.90
2018-09-29T19:49:37.567Z,47.60
2018-09-29T19:52:07.997Z,47.50
2018-09-29T19:54:38.284Z,47.60
2018-09-29T19:57:08.570Z,47.90
2018-09-29T19:59:39.019Z,48.20
2018-09-29T20:02:09.262Z,48.10
2018-09-29T20:04:39.553Z,48.20
2018-09-29T20:07:09.838Z,47.80
2018-09-29T20:09:40.126Z,47.80
2018-09-29T20:12:10.530Z,48.50
2018-09-29T20:14:40.929Z,48.80
2018-09-29T20:17:11.468Z,48.90
2018-09-29T20:19:41.827Z,49.10
2018-09-29T20:22:12.169Z,48.70
2018-09-29T20:24:42.571Z,48.90
2018-09-29T20:27:12.947Z,48.80
2018-09-29T20:29:43.302Z,48.80
2018-09-29T20:32:13.649Z,48.70
2018-09-29T20:34:43.991Z,48.70
2018-09-29T20:37:14.543Z,48.90
2018-09-29T20:39:44.849Z,49.10
2018-09-29T20:42:15.241Z,49.20
2018-09-29T20:44:45.527Z,49.40
2018-09-29T20:47:16.005Z,49.50
2018-09-29T20:49:46.310Z,49.80
2018-09-29T20:52:16.683Z,49.70
2018-09-29T20:54:47.048Z,49.60
2018-09-29T20:57:17.309Z,50.00
2018-09-29T20:59:47.894Z,49.80
2018-09-29T21:02:18.771Z,49.60
2018-09-29T21:04:49.140Z,49.70
2018-09-29T21:07:19.790Z,49.80
2018-09-29T21:09:50.112Z,49.70
2018-09-29T21:12:21.378Z,49.70
2018-09-29T21:14:53.056Z,49.80
2018-09-29T21:17:23.363Z,49.70
2018-09-29T21:19:54.134Z,49.80
2018-09-29T21:22:25.019Z,50.00
2018-09-29T21:24:55.362Z,50.00
2018-09-29T21:27:26.086Z,50.20
2018-09-29T21:29:57.555Z,50.20
2018-09-29T21:32:28.909Z,50.20
2018-09-29T21:34:59.824Z,50.20
2018-09-29T21:37:30.334Z,49.70
2018-09-29T21:40:00.857Z,50.10
2018-09-29T21:42:31.959Z,50.10
2018-09-29T21:45:02.680Z,50.30
2018-09-29T21:47:34.771Z,50.50
2018-09-29T21:50:05.965Z,50.70
2018-09-29T21:52:36.759Z,50.70
2018-09-29T21:55:07.956Z,50.70
2018-09-29T21:57:40.230Z,50.50
2018-09-29T22:00:10.733Z,50.40
2018-09-29T22:02:41.231Z,50.60
2018-09-29T22:05:11.955Z,50.70
2018-09-29T22:07:43.305Z,50.80
2018-09-29T22:10:14.529Z,50.50
2018-09-29T22:12:45.435Z,50.50
2018-09-29T22:15:15.870Z,50.90
2018-09-29T22:17:46.394Z,50.90
2018-09-29T22:20:16.842Z,50.90
2018-09-29T22:22:47.200Z,50.90
2018-09-29T22:25:17.722Z,50.50
2018-09-29T22:27:48.274Z,50.60
2018-09-29T22:30:18.864Z,50.90
2018-09-29T22:32:49.399Z,50.90
2018-09-29T22:35:19.994Z,50.50
2018-09-29T22:37:50.947Z,50.70
2018-09-29T22:40:21.558Z,50.70
2018-09-29T22:42:51.898Z,50.90
2018-09-29T22:45:22.229Z,50.90
2018-09-29T22:47:52.491Z,50.50
2018-09-29T22:50:22.781Z,50.70
2018-09-29T22:52:53.423Z,51.00
2018-09-29T22:55:23.773Z,51.00
2018-09-29T22:57:54.330Z,51.30
2018-09-29T23:00:24.615Z,51.00
2018-09-29T23:02:55.052Z,51.10
2018-09-29T23:05:25.431Z,51.10
2018-09-29T23:07:55.767Z,51.10
2018-09-29T23:10:26.050Z,51.20
2018-09-29T23:12:56.397Z,51.30
2018-09-29T23:15:26.737Z,51.30
2018-09-29T23:17:57.196Z,51.30
2018-09-29T23:20:27.776Z,51.20
2018-09-29T23:22:58.104Z,50.90
2018-09-29T23:25:28.415Z,50.70
2018-09-29T23:27:58.745Z,51.00
2018-09-29T23:30:29.074Z,50.80
2018-09-29T23:32:59.399Z,51.00
2018-09-29T23:35:29.683Z,51.20
2018-09-29T23:37:59.998Z,51.30
2018-09-29T23:40:30.302Z,51.50
2018-09-29T23:43:00.610Z,51.40
2018-09-29T23:45:30.855Z,51.50
2018-09-29T23:48:01.232Z,51.50
2018-09-29T23:50:31.572Z,51.40
2018-09-29T23:53:01.913Z,51.40
2018-09-29T23:55:32.215Z,51.60
2018-09-29T23:58:02.555Z,51.70
